createdAt,value
2022-12-11T00:01:24.899Z,25.27
2022-12-11T00:03:51.746Z,23.67
2022-12-11T00:06:21.133Z,23.60
2022-12-11T00:08:50.655Z,26.73
2022-12-11T00:11:17.390Z,24.02
2022-12-11T00:13:44.204Z,27.05
2022-12-11T00:16:11.115Z,25.15
2022-12-11T00:18:38.076Z,28.08
2022-12-11T00:21:06.660Z,27.80
2022-12-11T00:23:35.633Z,26.80
2022-12-11T00:26:10.493Z,27.85
2022-12-11T00:28:36.969Z,23.92
2022-12-11T00:31:05.719Z,27.88
2022-12-11T00:33:32.200Z,28.70
2022-12-11T00:35:58.745Z,26.70
2022-12-11T00:38:25.211Z,25.95
2022-12-11T00:40:52.006Z,28.15
2022-12-11T00:43:18.453Z,26.92
2022-12-11T00:45:46.858Z,28.53
2022-12-11T00:48:13.556Z,26.42
2022-12-11T00:50:40.808Z,28.30
2022-12-11T00:53:08.066Z,26.15
2022-12-11T00:55:40.034Z,27.60
2022-12-11T00:58:07.134Z,26.77
2022-12-11T01:00:34.142Z,28.23
2022-12-11T01:03:01.147Z,28.17
2022-12-11T01:05:27.901Z,29.10
2022-12-11T01:07:54.390Z,29.08
2022-12-11T01:10:23.997Z,28.13
2022-12-11T01:12:55.895Z,27.58
2022-12-11T01:15:25.220Z,30.90
2022-12-11T01:17:52.506Z,25.23
2022-12-11T01:20:20.932Z,23.95
2022-12-11T01:22:47.503Z,25.43
2022-12-11T01:25:14.428Z,26.75
2022-12-11T01:27:40.877Z,25.52
2022-12-11T01:30:08.429Z,29.67
2022-12-11T01:32:35.890Z,29.17
2022-12-11T01:35:08.224Z,26.87
2022-12-11T01:37:35.109Z,29.45
2022-12-11T01:40:02.213Z,29.67
2022-12-11T01:42:29.624Z,29.55
2022-12-11T01:45:23.870Z,26.90
2022-12-11T01:47:59.224Z,29.40
2022-12-11T01:50:26.267Z,25.55
2022-12-11T01:52:53.302Z,31.02
2022-12-11T01:55:20.646Z,27.50
2022-12-11T01:57:50.560Z,27.88
2022-12-11T02:00:17.569Z,28.63
2022-12-11T02:02:44.414Z,27.35
2022-12-11T02:05:11.882Z,31.00
2022-12-11T02:07:52.445Z,26.90
2022-12-11T02:10:19.338Z,27.73
2022-12-11T02:12:57.964Z,25.13
2022-12-11T02:15:40.261Z,26.10
2022-12-11T02:18:12.595Z,31.75
2022-12-11T02:21:06.611Z,27.65
2022-12-11T02:23:58.360Z,31.13
2022-12-11T02:26:34.634Z,29.33
2022-12-11T02:29:04.198Z,27.88
2022-12-11T02:31:46.883Z,27.90
2022-12-11T02:34:28.705Z,27.13
2022-12-11T02:37:00.135Z,30.75
2022-12-11T02:39:28.404Z,30.77
2022-12-11T02:41:56.426Z,26.08
2022-12-11T02:44:27.042Z,28.98
2022-12-11T02:46:54.944Z,29.92
2022-12-11T02:49:23.276Z,29.23
2022-12-11T02:51:52.318Z,27.80
2022-12-11T02:54:25.289Z,29.30
2022-12-11T02:56:57.713Z,23.48
2022-12-11T02:59:32.891Z,26.98
2022-12-11T03:01:59.528Z,27.70
2022-12-11T03:04:26.246Z,28.27
2022-12-11T03:06:59.944Z,30.85
2022-12-11T03:09:28.414Z,29.92
2022-12-11T03:11:55.002Z,28.15
2022-12-11T03:14:21.488Z,27.95
2022-12-11T03:17:05.708Z,27.33
2022-12-11T03:19:37.195Z,26.65
2022-12-11T03:22:11.018Z,27.73
2022-12-11T03:24:59.617Z,28.27
2022-12-11T03:27:42.448Z,27.42
2022-12-11T03:30:14.239Z,28.10
2022-12-11T03:32:49.291Z,25.92
2022-12-11T03:35:33.906Z,29.48
2022-12-11T03:38:11.822Z,25.48
2022-12-11T03:40:42.199Z,28.35
2022-12-11T03:43:10.891Z,23.90
2022-12-11T03:45:39.122Z,25.83
2022-12-11T03:48:07.272Z,27.23
2022-12-11T03:50:35.376Z,28.85
2022-12-11T03:53:03.790Z,25.95
2022-12-11T03:55:32.823Z,25.17
2022-12-11T03:57:59.361Z,25.92
2022-12-11T04:00:25.854Z,29.15
2022-12-11T04:03:13.527Z,26.23
2022-12-11T04:05:53.337Z,22.13
2022-12-11T04:08:21.157Z,22.83
2022-12-11T04:10:47.984Z,23.08
2022-12-11T04:13:14.474Z,25.70
2022-12-11T04:15:41.271Z,25.83
2022-12-11T04:18:26.639Z,27.73
2022-12-11T04:21:13.356Z,23.10
2022-12-11T04:23:58.676Z,20.83
2022-12-11T04:26:25.416Z,24.48
2022-12-11T04:28:51.917Z,24.02
2022-12-11T04:31:21.583Z,25.52
2022-12-11T04:33:48.121Z,21.37
2022-12-11T04:36:15.175Z,21.95
2022-12-11T04:38:41.669Z,26.20
2022-12-11T04:41:11.284Z,25.35
2022-12-11T04:43:38.018Z,25.42
2022-12-11T04:46:09.994Z,22.90
2022-12-11T04:48:37.485Z,25.38
2022-12-11T04:51:04.421Z,24.85
2022-12-11T04:53:31.661Z,23.13
2022-12-11T04:55:58.148Z,23.58
2022-12-11T04:58:26.066Z,19.50
2022-12-11T05:00:53.042Z,20.25
2022-12-11T05:03:19.756Z,22.40
2022-12-11T05:05:51.184Z,15.23
2022-12-11T05:08:18.998Z,19.40
2022-12-11T05:10:50.066Z,25.03
2022-12-11T05:13:16.728Z,22.55
2022-12-11T05:15:43.173Z,19.40
2022-12-11T05:18:09.699Z,21.98
2022-12-11T05:20:36.223Z,24.35
2022-12-11T05:23:02.684Z,21.17
2022-12-11T05:25:29.139Z,22.65
2022-12-11T05:27:55.584Z,22.98
2022-12-11T05:30:22.029Z,23.98
2022-12-11T05:32:48.491Z,22.77
2022-12-11T05:35:15.120Z,23.67
2022-12-11T05:37:41.673Z,22.60
2022-12-11T05:40:08.937Z,22.73
2022-12-11T05:42:35.388Z,22.42
2022-12-11T05:45:01.816Z,21.60
2022-12-11T05:47:28.337Z,23.03
2022-12-11T05:49:54.740Z,22.38
2022-12-11T05:52:21.757Z,21.38
2022-12-11T05:54:50.434Z,23.40
2022-12-11T05:57:17.227Z,23.67
2022-12-11T05:59:43.688Z,24.03
2022-12-11T06:02:10.305Z,22.52
2022-12-11T06:04:36.781Z,22.52
2022-12-11T06:07:03.413Z,21.40
2022-12-11T06:09:30.000Z,21.80
2022-12-11T06:11:56.428Z,20.70
2022-12-11T06:14:22.848Z,20.58
2022-12-11T06:16:50.115Z,23.75
2022-12-11T06:19:18.431Z,21.27
2022-12-11T06:21:45.872Z,23.83
2022-12-11T06:24:12.520Z,20.23
2022-12-11T06:26:39.190Z,22.52
2022-12-11T06:29:09.186Z,23.63
2022-12-11T06:31:39.215Z,20.25
2022-12-11T06:34:06.049Z,24.65
2022-12-11T06:36:32.547Z,19.77
2022-12-11T06:38:59.070Z,23.50
2022-12-11T06:41:25.811Z,23.33
2022-12-11T06:43:52.493Z,23.88
2022-12-11T06:46:19.914Z,22.00
2022-12-11T06:48:47.603Z,22.20
2022-12-11T06:51:19.669Z,22.33
2022-12-11T06:53:56.903Z,22.65
2022-12-11T06:56:24.369Z,23.48
2022-12-11T06:58:51.950Z,23.23
2022-12-11T07:01:21.937Z,24.63
2022-12-11T07:03:49.186Z,23.70
2022-12-11T07:06:16.236Z,23.85
2022-12-11T07:08:43.590Z,25.40
2022-12-11T07:11:13.356Z,26.35
2022-12-11T07:13:40.308Z,25.63
2022-12-11T07:16:10.796Z,27.02
2022-12-11T07:18:42.098Z,26.13
2022-12-11T07:21:11.837Z,24.83
2022-12-11T07:23:38.330Z,22.00
2022-12-11T07:26:06.303Z,22.80
2022-12-11T07:28:33.229Z,24.45
2022-12-11T07:30:59.868Z,26.38
2022-12-11T07:33:26.430Z,25.40
2022-12-11T07:35:52.882Z,26.92
2022-12-11T07:38:19.308Z,25.93
2022-12-11T07:40:45.795Z,26.27
2022-12-11T07:43:12.201Z,27.10
2022-12-11T07:45:39.275Z,23.73
2022-12-11T07:48:06.267Z,24.35
2022-12-11T07:50:36.605Z,23.07
2022-12-11T07:53:06.112Z,25.20
2022-12-11T07:55:32.600Z,22.92
2022-12-11T07:57:59.036Z,22.55
2022-12-11T08:00:25.496Z,24.52
2022-12-11T08:02:52.019Z,21.77
2022-12-11T08:05:18.468Z,20.90
2022-12-11T08:07:44.915Z,20.67
2022-12-11T08:10:11.394Z,16.42
2022-12-11T08:12:38.480Z,19.77
2022-12-11T08:15:05.444Z,19.93
2022-12-11T08:17:36.631Z,19.42
2022-12-11T08:20:06.611Z,20.13
2022-12-11T08:22:34.171Z,18.55
2022-12-11T08:25:00.595Z,21.27
2022-12-11T08:27:27.014Z,19.97
2022-12-11T08:29:53.477Z,19.50
2022-12-11T08:32:19.936Z,21.27
2022-12-11T08:34:46.336Z,17.20
2022-12-11T08:37:13.637Z,20.77
2022-12-11T08:39:40.084Z,20.90
2022-12-11T08:42:07.106Z,20.38
2022-12-11T08:44:33.579Z,21.88
2022-12-11T08:47:00.006Z,22.38
2022-12-11T08:49:29.851Z,23.73
2022-12-11T08:51:59.228Z,21.30
2022-12-11T08:54:25.680Z,23.23
2022-12-11T08:56:56.414Z,22.15
2022-12-11T08:59:25.614Z,21.65
2022-12-11T09:01:52.461Z,23.92
2022-12-11T09:04:18.943Z,25.13
2022-12-11T09:06:45.405Z,21.45
2022-12-11T09:09:12.649Z,22.75
2022-12-11T09:11:39.075Z,23.15
2022-12-11T09:14:07.936Z,23.25
2022-12-11T09:16:37.777Z,22.93
2022-12-11T09:19:06.172Z,21.33
2022-12-11T09:21:32.784Z,21.60
2022-12-11T09:24:01.388Z,22.50
2022-12-11T09:26:30.036Z,21.65
2022-12-11T09:28:56.773Z,22.03
2022-12-11T09:31:28.897Z,20.58
2022-12-11T09:33:57.849Z,22.40
2022-12-11T09:36:24.485Z,21.08
2022-12-11T09:38:51.432Z,20.48
2022-12-11T09:41:20.963Z,21.03
2022-12-11T09:43:51.785Z,20.83
2022-12-11T09:46:21.617Z,21.33
2022-12-11T09:48:53.489Z,22.40
2022-12-11T09:51:30.468Z,20.30
2022-12-11T09:54:01.723Z,20.00
2022-12-11T09:56:57.731Z,19.83
2022-12-11T09:59:38.092Z,20.10
2022-12-11T10:02:16.841Z,18.40
2022-12-11T10:04:59.186Z,19.85
2022-12-11T10:07:33.919Z,19.80
2022-12-11T10:10:38.929Z,21.52
2022-12-11T10:13:34.819Z,20.55
2022-12-11T10:16:07.461Z,18.40
2022-12-11T10:18:34.286Z,18.67
2022-12-11T10:21:02.497Z,19.43
2022-12-11T10:23:42.017Z,18.75
2022-12-11T10:26:17.602Z,16.70
2022-12-11T10:28:44.489Z,18.27
2022-12-11T10:31:16.087Z,18.80
2022-12-11T10:34:02.616Z,17.50
2022-12-11T10:36:32.372Z,17.75
2022-12-11T10:38:59.258Z,18.67
2022-12-11T10:41:49.073Z,17.92
2022-12-11T10:44:27.348Z,18.40
2022-12-11T10:47:10.849Z,17.93
2022-12-11T10:49:42.633Z,17.58
2022-12-11T10:52:38.165Z,18.15
2022-12-11T10:55:08.023Z,18.52
2022-12-11T10:57:37.049Z,18.77
2022-12-11T11:00:08.714Z,17.30
2022-12-11T11:02:38.381Z,18.25
2022-12-11T11:05:17.972Z,18.42
2022-12-11T11:07:44.560Z,19.63
2022-12-11T11:10:11.035Z,20.38
2022-12-11T11:12:42.123Z,18.87
2022-12-11T11:15:17.585Z,18.73
2022-12-11T11:17:54.616Z,19.75
2022-12-11T11:20:26.247Z,17.67
2022-12-11T11:23:00.038Z,18.85
2022-12-11T11:25:29.405Z,16.73
2022-12-11T11:28:34.319Z,16.88
2022-12-11T11:31:08.879Z,18.20
2022-12-11T11:33:37.828Z,16.83
2022-12-11T11:36:07.015Z,17.63
2022-12-11T11:38:52.177Z,18.87
2022-12-11T11:41:31.735Z,17.88
2022-12-11T11:44:02.166Z,18.30
2022-12-11T11:46:49.177Z,20.05
2022-12-11T11:49:15.567Z,19.58
2022-12-11T11:51:52.604Z,17.50
2022-12-11T11:54:34.513Z,17.95
2022-12-11T11:57:33.326Z,17.65
2022-12-11T12:00:10.755Z,18.45
2022-12-11T12:02:37.801Z,18.50
2022-12-11T12:05:04.851Z,18.20
2022-12-11T12:07:50.695Z,17.20
2022-12-11T12:10:21.892Z,18.73
2022-12-11T12:13:03.293Z,17.02
2022-12-11T12:15:53.994Z,17.17
2022-12-11T12:18:38.847Z,18.77
2022-12-11T12:21:18.230Z,19.60
2022-12-11T12:23:57.132Z,19.60
2022-12-11T12:26:33.645Z,19.77
2022-12-11T12:29:17.963Z,19.92
2022-12-11T12:32:02.909Z,16.40
2022-12-11T12:34:44.441Z,18.55
2022-12-11T12:37:45.181Z,19.70
2022-12-11T12:40:17.875Z,19.45
2022-12-11T12:43:05.665Z,19.17
2022-12-11T12:45:35.201Z,21.07
2022-12-11T12:48:02.098Z,19.38
2022-12-11T12:50:43.573Z,21.30
2022-12-11T12:53:18.237Z,19.40
2022-12-11T12:55:46.550Z,21.33
2022-12-11T12:58:40.155Z,20.53
2022-12-11T13:01:15.476Z,20.48
2022-12-11T13:04:04.049Z,19.92
2022-12-11T13:06:34.956Z,20.08
2022-12-11T13:09:17.769Z,23.50
2022-12-11T13:11:45.717Z,22.47
2022-12-11T13:14:15.492Z,19.88
2022-12-11T13:16:45.247Z,22.23
2022-12-11T13:19:24.114Z,22.35
2022-12-11T13:22:00.032Z,23.65
2022-12-11T13:24:28.537Z,21.60
2022-12-11T13:26:55.689Z,23.13
2022-12-11T13:29:40.432Z,22.08
2022-12-11T13:32:09.878Z,23.42
2022-12-11T13:34:39.264Z,22.08
2022-12-11T13:37:07.454Z,20.37
2022-12-11T13:39:39.689Z,22.15
2022-12-11T13:42:20.292Z,19.92
2022-12-11T13:44:48.636Z,21.80
2022-12-11T13:47:18.656Z,23.23
2022-12-11T13:49:50.027Z,21.17
2022-12-11T13:52:23.049Z,21.75
2022-12-11T13:54:51.967Z,21.77
2022-12-11T13:57:23.163Z,21.63
2022-12-11T13:59:53.264Z,21.67
2022-12-11T14:02:25.577Z,22.73
2022-12-11T14:04:57.328Z,20.45
2022-12-11T14:07:28.776Z,20.85
2022-12-11T14:10:01.551Z,20.52
2022-12-11T14:12:30.349Z,22.88
2022-12-11T14:14:59.820Z,20.87
2022-12-11T14:17:29.710Z,20.60
2022-12-11T14:20:00.507Z,21.02
2022-12-11T14:22:29.104Z,21.27
2022-12-11T14:25:02.736Z,24.55
2022-12-11T14:27:29.716Z,23.53
2022-12-11T14:29:56.627Z,20.17
2022-12-11T14:32:37.024Z,23.88
2022-12-11T14:35:07.341Z,19.80
2022-12-11T14:37:37.099Z,21.98
2022-12-11T14:40:15.792Z,20.60
2022-12-11T14:42:51.758Z,21.20
2022-12-11T14:45:28.982Z,19.63
2022-12-11T14:47:58.320Z,20.90
2022-12-11T14:50:43.781Z,20.67
2022-12-11T14:53:15.465Z,19.17
2022-12-11T14:55:42.344Z,19.45
2022-12-11T14:58:22.350Z,20.73
2022-12-11T15:01:05.561Z,20.85
2022-12-11T15:03:34.817Z,22.08
2022-12-11T15:06:02.922Z,21.97
2022-12-11T15:08:35.197Z,21.05
2022-12-11T15:11:12.139Z,22.77
2022-12-11T15:14:00.223Z,21.05
2022-12-11T15:16:31.290Z,22.75
2022-12-11T15:18:58.893Z,20.83
2022-12-11T15:21:30.960Z,20.95
2022-12-11T15:23:59.530Z,22.90
2022-12-11T15:26:39.565Z,20.98
2022-12-11T15:29:36.898Z,22.60
2022-12-11T15:32:09.272Z,22.23
2022-12-11T15:34:42.370Z,20.20
2022-12-11T15:37:22.371Z,21.65
2022-12-11T15:39:48.929Z,23.30
2022-12-11T15:42:20.898Z,21.33
2022-12-11T15:44:47.560Z,20.20
2022-12-11T15:47:15.576Z,21.63
2022-12-11T15:49:42.375Z,21.15
2022-12-11T15:52:08.813Z,19.20
2022-12-11T15:54:35.280Z,21.48
2022-12-11T15:57:05.296Z,20.17
2022-12-11T15:59:33.057Z,19.95
2022-12-11T16:01:59.647Z,23.63
2022-12-11T16:04:26.332Z,21.00
2022-12-11T16:06:53.188Z,21.58
2022-12-11T16:09:19.642Z,20.20
2022-12-11T16:11:46.060Z,23.67
2022-12-11T16:14:12.501Z,22.13
2022-12-11T16:16:38.966Z,20.35
2022-12-11T16:19:05.439Z,20.88
2022-12-11T16:21:31.959Z,20.60
2022-12-11T16:23:58.424Z,34.97
2022-12-11T16:26:25.419Z,25.98
2022-12-11T16:28:51.836Z,25.60
2022-12-11T16:31:18.356Z,31.88
2022-12-11T16:33:44.914Z,30.07
2022-12-11T16:36:17.612Z,26.70
2022-12-11T16:38:51.413Z,25.77
2022-12-11T16:41:19.964Z,20.88
2022-12-11T16:43:46.379Z,19.95
2022-12-11T16:46:12.885Z,20.27
2022-12-11T16:48:39.450Z,21.73
2022-12-11T16:51:05.993Z,26.80
2022-12-11T16:53:32.467Z,26.73
2022-12-11T16:55:58.925Z,20.50
2022-12-11T16:58:25.386Z,17.97
2022-12-11T17:00:51.879Z,19.45
2022-12-11T17:03:19.488Z,19.45
2022-12-11T17:05:46.012Z,18.63
2022-12-11T17:08:12.546Z,20.48
2022-12-11T17:10:41.472Z,19.50
2022-12-11T17:13:08.065Z,18.15
2022-12-11T17:15:34.581Z,19.48
2022-12-11T17:18:01.067Z,18.95
2022-12-11T17:20:27.544Z,17.70
2022-12-11T17:22:54.040Z,17.53
2022-12-11T17:25:22.431Z,16.17
2022-12-11T17:27:49.555Z,19.60
2022-12-11T17:30:16.211Z,17.67
2022-12-11T17:32:42.724Z,18.65
2022-12-11T17:35:09.902Z,16.40
2022-12-11T17:37:36.498Z,16.77
2022-12-11T17:40:03.407Z,17.67
2022-12-11T17:42:29.854Z,17.85
2022-12-11T17:44:56.321Z,17.85
2022-12-11T17:47:23.684Z,17.50
2022-12-11T17:49:50.147Z,15.93
2022-12-11T17:52:16.613Z,17.42
2022-12-11T17:54:43.080Z,16.08
2022-12-11T17:57:09.784Z,16.60
2022-12-11T17:59:36.290Z,17.87
2022-12-11T18:02:02.876Z,17.38
2022-12-11T18:04:29.479Z,17.75
2022-12-11T18:06:56.053Z,16.35
2022-12-11T18:09:22.478Z,17.77
2022-12-11T18:11:48.977Z,14.03
2022-12-11T18:14:17.586Z,18.25
2022-12-11T18:16:44.294Z,17.27
2022-12-11T18:19:10.873Z,17.38
2022-12-11T18:21:41.371Z,18.25
2022-12-11T18:24:08.928Z,18.00
2022-12-11T18:26:37.424Z,17.00
2022-12-11T18:29:04.452Z,18.67
2022-12-11T18:31:31.031Z,17.45
2022-12-11T18:33:57.983Z,17.77
2022-12-11T18:36:24.429Z,16.63
2022-12-11T18:38:51.106Z,19.42
2022-12-11T18:41:18.948Z,18.50
2022-12-11T18:43:45.923Z,17.75
2022-12-11T18:46:15.691Z,19.25
2022-12-11T18:48:43.285Z,16.30
2022-12-11T18:51:13.123Z,18.83
2022-12-11T18:53:39.906Z,17.85
2022-12-11T18:56:08.715Z,17.40
2022-12-11T18:58:35.178Z,19.67
2022-12-11T19:01:09.953Z,18.30
2022-12-11T19:03:37.187Z,17.30
2022-12-11T19:06:12.625Z,19.30
2022-12-11T19:08:39.682Z,19.75
2022-12-11T19:11:07.073Z,20.13
2022-12-11T19:13:34.193Z,17.70
2022-12-11T19:16:00.955Z,17.42
2022-12-11T19:18:27.857Z,17.55
2022-12-11T19:21:03.095Z,17.08
2022-12-11T19:23:34.752Z,17.80
2022-12-11T19:26:01.799Z,16.23
2022-12-11T19:28:30.042Z,17.35
2022-12-11T19:30:56.993Z,17.77
2022-12-11T19:33:23.653Z,17.95
2022-12-11T19:35:50.107Z,17.25
2022-12-11T19:38:16.638Z,18.47
2022-12-11T19:40:44.723Z,18.27
2022-12-11T19:43:11.721Z,20.27
2022-12-11T19:45:38.476Z,18.02
2022-12-11T19:48:05.583Z,18.02
2022-12-11T19:50:32.079Z,17.70
2022-12-11T19:52:58.539Z,19.13
2022-12-11T19:55:25.020Z,17.35
2022-12-11T19:57:51.498Z,18.05
2022-12-11T20:00:18.849Z,17.63
2022-12-11T20:02:45.345Z,18.47
2022-12-11T20:05:12.139Z,17.83
2022-12-11T20:07:38.902Z,20.38
2022-12-11T20:10:06.111Z,20.50
2022-12-11T20:12:32.660Z,22.25
2022-12-11T20:14:59.131Z,21.70
2022-12-11T20:17:25.679Z,22.33
2022-12-11T20:19:52.389Z,22.75
2022-12-11T20:22:18.854Z,22.40
2022-12-11T20:24:45.666Z,22.70
2022-12-11T20:27:12.564Z,20.17
2022-12-11T20:29:39.412Z,20.98
2022-12-11T20:32:07.320Z,22.17
2022-12-11T20:34:33.962Z,22.27
2022-12-11T20:37:00.471Z,21.90
2022-12-11T20:39:27.248Z,20.97
2022-12-11T20:41:53.693Z,22.52
2022-12-11T20:44:20.244Z,22.10
2022-12-11T20:46:46.704Z,22.55
2022-12-11T20:49:13.308Z,23.48
2022-12-11T20:51:40.825Z,23.93
2022-12-11T20:54:07.356Z,21.23
2022-12-11T20:56:33.990Z,25.60
2022-12-11T20:59:00.816Z,24.30
2022-12-11T21:01:30.402Z,24.33
2022-12-11T21:03:57.870Z,21.37
2022-12-11T21:06:28.401Z,21.98
2022-12-11T21:08:54.905Z,23.10
2022-12-11T21:11:21.694Z,21.90
2022-12-11T21:13:48.214Z,22.75
2022-12-11T21:16:14.740Z,20.63
2022-12-11T21:18:43.420Z,21.58
2022-12-11T21:21:10.128Z,21.33
2022-12-11T21:23:36.629Z,19.30
2022-12-11T21:26:03.356Z,20.27
2022-12-11T21:28:35.234Z,18.33
2022-12-11T21:31:04.803Z,18.67
2022-12-11T21:33:31.384Z,20.33
2022-12-11T21:35:59.450Z,19.15
2022-12-11T21:38:26.144Z,18.77
2022-12-11T21:40:53.509Z,19.67
2022-12-11T21:43:20.208Z,18.45
2022-12-11T21:46:02.453Z,21.50
2022-12-11T21:48:29.239Z,18.83
2022-12-11T21:50:56.088Z,19.38
2022-12-11T21:53:22.547Z,19.00
2022-12-11T21:55:48.973Z,19.02
2022-12-11T21:58:15.655Z,20.40
2022-12-11T22:00:42.283Z,19.92
2022-12-11T22:03:08.841Z,20.02
2022-12-11T22:05:35.313Z,20.17
2022-12-11T22:08:02.249Z,20.65
2022-12-11T22:10:29.242Z,21.63
2022-12-11T22:12:55.784Z,20.20
2022-12-11T22:15:22.353Z,20.95
2022-12-11T22:17:48.863Z,20.07
2022-12-11T22:20:15.417Z,20.55
2022-12-11T22:22:42.233Z,21.33
2022-12-11T22:25:09.643Z,20.45
2022-12-11T22:27:36.480Z,21.20
2022-12-11T22:30:03.749Z,20.77
2022-12-11T22:32:30.305Z,18.88
2022-12-11T22:34:57.727Z,19.88
2022-12-11T22:37:25.309Z,20.08
2022-12-11T22:39:51.861Z,18.70
2022-12-11T22:42:18.398Z,19.80
2022-12-11T22:44:44.956Z,20.08
2022-12-11T22:47:11.570Z,21.45
2022-12-11T22:49:38.033Z,20.50
2022-12-11T22:52:04.869Z,21.85
2022-12-11T22:54:31.376Z,19.90
2022-12-11T22:56:57.855Z,18.75
2022-12-11T22:59:24.373Z,21.77
2022-12-11T23:01:50.888Z,18.85
2022-12-11T23:04:17.387Z,20.08
2022-12-11T23:06:43.839Z,19.70
2022-12-11T23:09:10.917Z,20.33
2022-12-11T23:11:38.424Z,22.63
2022-12-11T23:14:07.746Z,19.35
2022-12-11T23:16:34.522Z,20.75
2022-12-11T23:19:01.120Z,20.33
2022-12-11T23:21:28.589Z,20.67
2022-12-11T23:23:56.261Z,21.70
2022-12-11T23:26:23.158Z,24.08
2022-12-11T23:28:50.206Z,25.05
2022-12-11T23:31:17.883Z,23.43
2022-12-11T23:33:44.959Z,20.17
2022-12-11T23:36:12.266Z,21.35
2022-12-11T23:38:40.497Z,22.92
2022-12-11T23:41:08.472Z,24.35
2022-12-11T23:43:36.232Z,20.57
2022-12-11T23:46:13.782Z,20.00
2022-12-11T23:48:40.945Z,20.63
2022-12-11T23:51:09.138Z,19.85
2022-12-11T23:53:35.725Z,22.00
2022-12-11T23:56:08.492Z,19.80
2022-12-11T23:58:37.006Z,20.48
